createdAt,value
2018-05-12T00:00:19.060Z,25.58
2018-05-12T00:00:53.010Z,27.08
2018-05-12T00:01:27.621Z,22.98
2018-05-12T00:02:01.664Z,27.77
2018-05-12T00:02:35.677Z,25.20
2018-05-12T00:03:09.571Z,24.48
2018-05-12T00:03:43.449Z,28.90
2018-05-12T00:04:17.404Z,25.10
2018-05-12T00:04:51.681Z,25.90
2018-05-12T00:05:25.551Z,32.83
2018-05-12T00:05:59.437Z,30.65
2018-05-12T00:06:33.348Z,31.05
2018-05-12T00:07:07.251Z,32.30
2018-05-12T00:07:41.130Z,28.00
2018-05-12T00:08:15.025Z,26.65
2018-05-12T00:08:49.580Z,23.02
2018-05-12T00:09:23.502Z,22.77
2018-05-12T00:09:57.478Z,27.70
2018-05-12T00:10:31.384Z,23.62
2018-05-12T00:11:05.257Z,23.05
2018-05-12T00:11:39.157Z,23.12
2018-05-12T00:12:13.996Z,25.98
2018-05-12T00:12:47.863Z,26.05
2018-05-12T00:13:21.876Z,24.55
2018-05-12T00:13:55.795Z,20.73
2018-05-12T00:24:09.883Z,25.33
2018-05-12T00:24:43.866Z,24.27
2018-05-12T00:25:17.839Z,24.80
2018-05-12T00:25:51.766Z,31.58
2018-05-12T00:26:25.747Z,24.77
2018-05-12T00:26:59.664Z,26.20
2018-05-12T00:27:33.661Z,26.80
2018-05-12T00:28:08.503Z,26.92
2018-05-12T00:28:42.413Z,26.87
2018-05-12T00:29:16.486Z,29.15
2018-05-12T00:29:50.421Z,27.50
2018-05-12T00:30:24.314Z,24.27
2018-05-12T00:30:58.219Z,22.05
2018-05-12T00:31:32.085Z,22.35
2018-05-12T00:32:06.949Z,24.00
2018-05-12T00:32:40.850Z,23.98
2018-05-12T00:33:17.190Z,24.73
2018-05-12T00:33:51.117Z,24.55
2018-05-12T00:34:26.467Z,24.20
2018-05-12T00:35:02.163Z,25.27
2018-05-12T00:35:37.298Z,25.37
2018-05-12T00:36:11.212Z,26.40
2018-05-12T00:36:45.780Z,28.58
2018-05-12T00:37:20.279Z,26.27
2018-05-12T00:37:55.529Z,25.05
2018-05-12T00:38:30.029Z,25.58
2018-05-12T00:39:07.601Z,28.75
2018-05-12T00:39:41.474Z,26.45
2018-05-12T00:40:16.640Z,26.80
2018-05-12T00:40:53.268Z,27.37
2018-05-12T00:41:27.164Z,27.00
2018-05-12T00:42:01.049Z,26.52
2018-05-12T00:42:34.977Z,26.23
2018-05-12T00:43:08.980Z,28.52
2018-05-12T00:43:42.871Z,23.95
2018-05-12T00:44:16.816Z,25.20
2018-05-12T00:44:51.451Z,23.52
2018-05-12T00:45:25.333Z,23.95
2018-05-12T00:45:59.232Z,23.95
2018-05-12T00:46:33.108Z,23.35
2018-05-12T00:47:07.002Z,29.20
2018-05-12T00:47:40.875Z,24.25
2018-05-12T00:48:14.743Z,24.95
2018-05-12T00:48:48.683Z,22.67
2018-05-12T00:49:22.673Z,22.85
2018-05-12T00:49:56.570Z,23.40
2018-05-12T00:51:37.130Z,23.75
2018-05-12T00:52:14.950Z,22.75
2018-05-12T00:52:48.841Z,26.20
2018-05-12T00:53:23.622Z,26.67
2018-05-12T00:55:05.344Z,27.02
2018-05-12T00:55:39.235Z,23.45
2018-05-12T00:56:13.099Z,22.37
2018-05-12T00:56:46.976Z,23.20
2018-05-12T00:57:20.880Z,20.73
2018-05-12T00:57:54.908Z,22.60
2018-05-12T00:58:28.823Z,21.12
2018-05-12T00:59:02.758Z,22.17
2018-05-12T00:59:36.662Z,20.12
2018-05-12T01:00:10.588Z,22.75
2018-05-12T01:00:44.494Z,21.23
2018-05-12T01:01:18.504Z,22.65
2018-05-12T01:01:53.325Z,20.67
2018-05-12T01:02:27.342Z,21.83
2018-05-12T01:03:01.275Z,22.60
2018-05-12T01:03:35.186Z,21.25
2018-05-12T01:04:09.087Z,21.20
2018-05-12T01:04:42.972Z,23.62
2018-05-12T01:05:16.940Z,21.65
2018-05-12T01:05:50.837Z,21.27
2018-05-12T01:06:24.735Z,22.45
2018-05-12T01:06:58.624Z,19.75
2018-05-12T01:07:32.511Z,24.08
2018-05-12T01:08:06.414Z,21.27
2018-05-12T01:08:40.544Z,21.17
2018-05-12T01:09:14.433Z,22.17
2018-05-12T01:09:48.295Z,22.23
2018-05-12T01:10:22.191Z,21.92
2018-05-12T01:10:56.131Z,20.62
2018-05-12T01:11:30.039Z,20.80
2018-05-12T01:12:03.916Z,21.20
2018-05-12T01:12:37.849Z,22.08
2018-05-12T01:13:11.826Z,19.85
2018-05-12T01:13:45.711Z,21.23
2018-05-12T01:14:20.059Z,24.75
2018-05-12T01:14:54.085Z,23.12
2018-05-12T01:15:28.031Z,23.58
2018-05-12T01:16:01.993Z,23.73
2018-05-12T01:16:35.900Z,22.30
2018-05-12T01:17:09.782Z,24.90
2018-05-12T01:17:44.290Z,24.02
2018-05-12T01:18:18.180Z,24.60
2018-05-12T01:18:52.112Z,26.73
2018-05-12T01:19:26.709Z,22.23
2018-05-12T01:20:01.515Z,22.42
2018-05-12T01:20:35.629Z,22.60
2018-05-12T01:21:09.610Z,21.10
2018-05-12T01:21:43.899Z,23.23
2018-05-12T01:22:17.851Z,21.98
2018-05-12T01:22:51.775Z,23.60
2018-05-12T01:23:25.708Z,23.25
2018-05-12T01:23:59.596Z,24.02
2018-05-12T01:24:33.505Z,22.20
2018-05-12T01:25:07.399Z,22.92
2018-05-12T01:25:41.315Z,24.12
2018-05-12T01:26:15.315Z,23.50
2018-05-12T01:26:49.194Z,22.52
2018-05-12T01:27:23.106Z,26.40
2018-05-12T01:27:57.018Z,24.55
2018-05-12T01:28:33.077Z,23.17
2018-05-12T01:29:06.985Z,20.98
2018-05-12T01:29:40.939Z,25.02
2018-05-12T01:30:14.871Z,23.95
2018-05-12T01:30:48.761Z,23.62
2018-05-12T01:31:22.698Z,22.08
2018-05-12T01:31:57.332Z,22.83
2018-05-12T01:32:31.261Z,25.17
2018-05-12T01:33:05.143Z,23.48
2018-05-12T01:33:39.086Z,20.62
2018-05-12T01:34:12.959Z,25.20
2018-05-12T01:34:46.837Z,20.70
2018-05-12T01:35:20.822Z,24.20
2018-05-12T01:35:55.580Z,22.40
2018-05-12T01:36:29.514Z,22.05
2018-05-12T01:37:03.406Z,24.40
2018-05-12T01:37:37.305Z,20.98
2018-05-12T01:38:11.402Z,21.08
2018-05-12T01:38:45.295Z,20.27
2018-05-12T01:39:19.218Z,22.13
2018-05-12T01:39:53.120Z,20.67
2018-05-12T01:40:27.009Z,20.15
2018-05-12T01:41:00.884Z,22.55
2018-05-12T01:41:34.822Z,21.25
2018-05-12T01:42:08.746Z,20.90
2018-05-12T01:42:42.632Z,21.65
2018-05-12T01:43:16.528Z,20.48
2018-05-12T01:43:50.532Z,20.58
2018-05-12T01:44:24.413Z,20.55
2018-05-12T01:44:58.315Z,20.73
2018-05-12T01:45:32.198Z,23.75
2018-05-12T01:46:06.110Z,18.40
2018-05-12T01:46:40.025Z,19.40
2018-05-12T01:47:13.935Z,22.50
2018-05-12T01:47:47.840Z,21.02
2018-05-12T01:48:21.737Z,20.12
2018-05-12T01:48:55.636Z,23.42
2018-05-12T01:49:29.655Z,19.77
2018-05-12T01:50:03.568Z,19.55
2018-05-12T01:50:37.467Z,19.70
2018-05-12T01:51:11.420Z,21.12
2018-05-12T01:51:45.358Z,19.42
2018-05-12T01:52:19.241Z,20.17
2018-05-12T01:52:53.095Z,19.52
2018-05-12T01:53:26.976Z,20.10
2018-05-12T01:54:00.853Z,22.10
2018-05-12T01:54:34.794Z,19.37
2018-05-12T01:55:08.698Z,19.70
2018-05-12T01:55:42.616Z,20.67
2018-05-12T01:56:17.516Z,21.87
2018-05-12T01:56:51.546Z,19.23
2018-05-12T01:57:25.507Z,18.95
2018-05-12T01:57:59.384Z,20.33
2018-05-12T01:58:33.262Z,19.08
2018-05-12T01:59:07.224Z,19.17
2018-05-12T01:59:41.103Z,20.25
2018-05-12T02:00:14.972Z,19.73
2018-05-12T02:00:48.893Z,19.83
2018-05-12T02:01:22.797Z,20.67
2018-05-12T02:01:56.828Z,18.95
2018-05-12T02:02:30.707Z,20.00
2018-05-12T02:03:04.602Z,20.08
2018-05-12T02:03:38.589Z,20.75
2018-05-12T02:04:12.498Z,20.95
2018-05-12T02:04:46.368Z,20.20
2018-05-12T02:05:20.253Z,22.05
2018-05-12T02:05:54.153Z,20.95
2018-05-12T02:06:28.038Z,21.80
2018-05-12T02:07:01.980Z,22.45
2018-05-12T02:07:35.860Z,21.90
2018-05-12T02:08:09.765Z,22.33
2018-05-12T02:08:43.664Z,25.67
2018-05-12T02:09:17.625Z,24.33
2018-05-12T02:09:51.514Z,24.10
2018-05-12T02:10:25.448Z,24.17
2018-05-12T02:10:59.366Z,26.92
2018-05-12T02:11:33.309Z,26.37
2018-05-12T02:12:07.242Z,22.20
2018-05-12T02:12:41.171Z,27.95
2018-05-12T02:13:15.082Z,27.10
2018-05-12T02:13:49.745Z,24.05
2018-05-12T02:14:23.670Z,23.20
2018-05-12T02:14:57.634Z,22.87
2018-05-12T02:15:31.560Z,22.52
2018-05-12T02:16:05.453Z,20.25
2018-05-12T02:16:39.348Z,21.95
2018-05-12T02:17:13.270Z,20.40
2018-05-12T02:17:47.168Z,20.15
2018-05-12T02:18:21.883Z,22.40
2018-05-12T02:18:55.777Z,18.92
2018-05-12T02:19:29.671Z,21.48
2018-05-12T02:20:04.897Z,21.05
2018-05-12T02:20:38.781Z,23.98
2018-05-12T02:21:12.669Z,21.40
2018-05-12T02:21:46.565Z,20.85
2018-05-12T02:22:20.805Z,21.50
2018-05-12T02:22:54.789Z,22.58
2018-05-12T02:23:28.761Z,20.30
2018-05-12T02:24:02.777Z,20.12
2018-05-12T02:24:36.677Z,23.25
2018-05-12T02:25:10.597Z,21.50
2018-05-12T02:25:44.535Z,21.95
2018-05-12T02:26:18.417Z,23.85
2018-05-12T02:26:52.350Z,20.62
2018-05-12T02:27:26.242Z,22.50
2018-05-12T02:28:00.265Z,21.77
2018-05-12T02:28:34.162Z,21.67
2018-05-12T02:29:08.067Z,21.92
2018-05-12T02:29:42.202Z,19.40
2018-05-12T02:30:16.162Z,22.30
2018-05-12T02:30:49.999Z,18.25
2018-05-12T02:31:23.887Z,19.20
2018-05-12T02:31:57.870Z,19.15
2018-05-12T02:32:31.780Z,20.15
2018-05-12T02:33:05.924Z,18.58
2018-05-12T02:33:40.698Z,19.23
2018-05-12T02:34:14.581Z,19.77
2018-05-12T02:34:48.508Z,23.35
2018-05-12T02:35:22.446Z,19.17
2018-05-12T02:35:57.337Z,20.77
2018-05-12T02:36:31.327Z,20.98
2018-05-12T02:37:05.217Z,22.37
2018-05-12T02:37:39.112Z,20.75
2018-05-12T02:38:13.005Z,21.58
2018-05-12T02:38:46.988Z,23.30
2018-05-12T02:39:20.861Z,21.40
2018-05-12T02:39:54.798Z,21.40
2018-05-12T02:40:28.686Z,21.05
2018-05-12T02:41:02.693Z,21.23
2018-05-12T02:41:36.575Z,22.85
2018-05-12T02:42:10.476Z,21.52
2018-05-12T02:42:44.420Z,21.87
2018-05-12T02:43:18.292Z,20.85
2018-05-12T02:43:52.192Z,22.45
2018-05-12T02:44:26.092Z,20.60
2018-05-12T02:44:59.985Z,23.45
2018-05-12T02:45:33.986Z,21.73
2018-05-12T02:46:07.869Z,20.90
2018-05-12T02:46:41.744Z,23.40
2018-05-12T02:47:15.731Z,24.42
2018-05-12T02:47:49.674Z,25.95
2018-05-12T02:48:23.637Z,27.17
2018-05-12T02:48:57.563Z,29.40
2018-05-12T02:49:31.466Z,31.55
2018-05-12T02:50:05.372Z,38.60
2018-05-12T02:50:39.275Z,27.90
2018-05-12T02:51:13.164Z,33.17
2018-05-12T02:51:47.089Z,30.73
2018-05-12T02:52:21.069Z,30.42
2018-05-12T02:52:54.987Z,24.37
2018-05-12T02:53:28.876Z,26.98
2018-05-12T02:54:02.879Z,26.30
2018-05-12T02:54:36.753Z,27.25
2018-05-12T02:55:10.715Z,28.38
2018-05-12T02:55:44.629Z,27.95
2018-05-12T02:56:18.521Z,28.55
2018-05-12T02:56:52.415Z,27.73
2018-05-12T02:57:26.365Z,28.08
2018-05-12T02:58:00.285Z,24.58
2018-05-12T02:58:34.171Z,23.50
2018-05-12T02:59:08.117Z,24.10
2018-05-12T02:59:42.042Z,27.20
2018-05-12T03:00:15.949Z,22.77
2018-05-12T03:00:49.852Z,21.40
2018-05-12T03:01:23.745Z,24.92
2018-05-12T03:01:57.630Z,26.02
2018-05-12T03:02:31.501Z,21.55
2018-05-12T03:03:05.396Z,22.00
2018-05-12T03:03:39.277Z,22.13
2018-05-12T03:04:13.149Z,20.20
2018-05-12T03:04:47.103Z,20.60
2018-05-12T03:05:20.990Z,20.40
2018-05-12T03:05:54.875Z,22.02
2018-05-12T03:06:28.750Z,21.98
2018-05-12T03:07:02.923Z,19.95
2018-05-12T03:07:36.836Z,21.87
2018-05-12T03:08:10.737Z,20.08
2018-05-12T03:08:44.674Z,21.27
2018-05-12T03:09:18.570Z,20.67
2018-05-12T03:09:52.512Z,22.05
2018-05-12T03:10:26.439Z,21.60
2018-05-12T03:11:00.340Z,20.80
2018-05-12T03:11:34.539Z,20.88
2018-05-12T03:12:08.696Z,19.55
2018-05-12T03:12:43.390Z,21.10
2018-05-12T03:13:17.377Z,19.60
2018-05-12T03:13:51.259Z,19.17
2018-05-12T03:14:25.165Z,19.17
2018-05-12T03:14:59.138Z,19.77
2018-05-12T03:15:33.739Z,20.40
2018-05-12T03:16:07.635Z,20.58
2018-05-12T03:16:41.532Z,20.65
2018-05-12T03:17:15.645Z,19.52
2018-05-12T03:17:49.563Z,19.98
2018-05-12T03:18:23.473Z,20.30
2018-05-12T03:18:57.353Z,18.73
2018-05-12T03:19:31.281Z,20.10
2018-05-12T03:20:05.241Z,20.40
2018-05-12T03:20:39.128Z,19.15
2018-05-12T03:21:13.037Z,19.10
2018-05-12T03:21:46.946Z,19.10
2018-05-12T03:22:20.865Z,20.85
2018-05-12T03:22:54.785Z,17.65
2018-05-12T03:23:28.707Z,19.40
2018-05-12T03:24:02.588Z,18.95
2018-05-12T03:24:36.513Z,19.27
2018-05-12T03:25:10.440Z,18.85
2018-05-12T03:25:44.335Z,18.25
2018-05-12T03:26:18.238Z,20.42
2018-05-12T03:26:52.161Z,20.08
2018-05-12T03:27:26.144Z,18.25
2018-05-12T03:28:00.087Z,20.00
2018-05-12T03:28:34.021Z,20.90
2018-05-12T03:29:07.927Z,20.83
2018-05-12T03:29:41.826Z,20.65
2018-05-12T03:30:15.735Z,20.05
2018-05-12T03:30:49.641Z,20.98
2018-05-12T03:31:23.766Z,19.12
2018-05-12T03:31:57.660Z,19.65
2018-05-12T03:32:31.552Z,17.77
2018-05-12T03:33:05.462Z,19.55
2018-05-12T03:33:39.414Z,21.42
2018-05-12T03:34:13.311Z,19.05
2018-05-12T03:34:47.257Z,20.77
2018-05-12T03:35:21.167Z,19.42
2018-05-12T03:35:55.052Z,22.05
2018-05-12T03:36:28.941Z,22.20
2018-05-12T03:37:03.376Z,21.00
2018-05-12T03:37:37.343Z,20.25
2018-05-12T03:38:11.279Z,22.60
2018-05-12T03:38:45.177Z,24.27
2018-05-12T03:39:19.110Z,22.58
2018-05-12T03:39:53.025Z,20.58
2018-05-12T03:40:26.931Z,22.20
2018-05-12T03:41:01.465Z,21.65
2018-05-12T03:41:35.360Z,23.02
2018-05-12T03:42:09.233Z,20.95
2018-05-12T03:42:43.112Z,24.42
2018-05-12T03:43:16.999Z,25.05
2018-05-12T03:43:51.069Z,22.85
2018-05-12T03:44:25.067Z,23.70
2018-05-12T03:44:58.972Z,23.42
2018-05-12T03:45:32.857Z,24.63
2018-05-12T03:46:06.745Z,23.25
2018-05-12T03:46:40.661Z,22.95
2018-05-12T03:47:14.795Z,25.60
2018-05-12T03:47:48.713Z,22.40
2018-05-12T03:48:22.592Z,25.23
2018-05-12T03:48:56.497Z,23.15
2018-05-12T03:49:30.626Z,24.73
2018-05-12T03:50:04.495Z,26.95
2018-05-12T03:50:38.380Z,27.20
2018-05-12T03:51:12.252Z,24.42
2018-05-12T03:51:46.153Z,24.90
2018-05-12T03:52:20.073Z,25.95
2018-05-12T03:52:53.966Z,26.65
2018-05-12T03:53:27.862Z,25.02
2018-05-12T03:54:01.767Z,26.80
2018-05-12T03:54:35.653Z,26.58
2018-05-12T03:55:09.544Z,26.25
2018-05-12T03:55:45.071Z,26.23
2018-05-12T03:56:18.983Z,25.23
2018-05-12T03:56:52.874Z,28.35
2018-05-12T03:57:27.668Z,29.02
2018-05-12T03:58:01.552Z,27.92
2018-05-12T03:58:35.472Z,26.10
2018-05-12T03:59:09.393Z,28.00
2018-05-12T03:59:43.337Z,26.87
2018-05-12T04:00:17.230Z,24.67
2018-05-12T04:00:51.153Z,27.17
2018-05-12T04:01:25.042Z,29.83
2018-05-12T04:01:58.951Z,25.70
2018-05-12T04:02:32.833Z,29.48
2018-05-12T04:03:06.731Z,26.45
2018-05-12T04:03:40.704Z,30.70
2018-05-12T04:04:20.640Z,27.67
2018-05-12T04:05:00.497Z,28.87
2018-05-12T04:05:40.368Z,26.25
2018-05-12T04:06:20.182Z,26.62
2018-05-12T04:06:59.980Z,28.77
2018-05-12T04:07:39.745Z,25.45
2018-05-12T04:08:19.511Z,31.35
2018-05-12T04:09:09.130Z,27.02
2018-05-12T04:09:49.612Z,27.80
2018-05-12T04:10:25.223Z,32.45
2018-05-12T04:11:05.061Z,28.73
2018-05-12T04:11:44.943Z,29.55
2018-05-12T04:12:24.777Z,28.60
2018-05-12T04:12:58.720Z,27.48
2018-05-12T04:13:32.609Z,25.90
2018-05-12T04:14:06.504Z,32.05
2018-05-12T04:14:40.377Z,30.95
2018-05-12T04:15:14.332Z,29.95
2018-05-12T04:15:48.289Z,31.15
2018-05-12T04:16:22.198Z,27.70
2018-05-12T04:16:56.076Z,30.33
2018-05-12T04:17:29.983Z,33.72
2018-05-12T04:18:03.866Z,31.75
2018-05-12T04:18:37.761Z,29.20
2018-05-12T04:19:11.651Z,30.58
2018-05-12T04:19:45.551Z,33.50
2018-05-12T04:20:19.479Z,32.83
2018-05-12T04:20:53.392Z,29.50
2018-05-12T04:21:27.269Z,30.60
2018-05-12T04:22:01.273Z,30.40
2018-05-12T04:22:35.201Z,32.95
2018-05-12T04:23:09.101Z,30.52
2018-05-12T04:23:43.012Z,33.45
2018-05-12T04:24:16.931Z,31.10
2018-05-12T04:24:50.810Z,28.12
2018-05-12T04:25:24.711Z,32.97
2018-05-12T04:25:58.592Z,29.05
2018-05-12T04:26:32.459Z,27.92
2018-05-12T04:27:06.340Z,34.30
2018-05-12T04:27:40.213Z,30.40
2018-05-12T04:28:14.178Z,31.70
2018-05-12T04:28:48.045Z,28.73
2018-05-12T04:29:21.962Z,27.20
2018-05-12T04:29:55.826Z,27.65
2018-05-12T04:30:29.778Z,33.42
2018-05-12T04:31:03.679Z,25.37
2018-05-12T04:31:37.559Z,27.77
2018-05-12T04:32:12.496Z,32.85
2018-05-12T04:32:46.384Z,31.95
2018-05-12T04:33:20.325Z,28.85
2018-05-12T04:33:54.203Z,27.33
2018-05-12T04:34:28.141Z,28.75
2018-05-12T04:35:02.039Z,29.55
2018-05-12T04:35:35.964Z,28.58
2018-05-12T04:36:09.857Z,26.48
2018-05-12T04:36:43.799Z,29.15
2018-05-12T04:37:17.682Z,26.08
2018-05-12T04:37:51.577Z,26.25
2018-05-12T04:38:25.509Z,31.45
2018-05-12T04:38:59.433Z,26.55
2018-05-12T04:39:33.325Z,24.15
2018-05-12T04:40:07.250Z,28.65
2018-05-12T04:40:41.157Z,26.17
2018-05-12T04:41:15.082Z,27.62
2018-05-12T04:41:48.979Z,29.10
2018-05-12T04:42:22.878Z,29.85
2018-05-12T04:42:56.799Z,30.08
2018-05-12T04:43:30.725Z,27.95
2018-05-12T04:44:04.607Z,27.58
2018-05-12T04:44:38.476Z,27.62
2018-05-12T04:45:12.434Z,27.48
2018-05-12T04:45:46.346Z,32.78
2018-05-12T04:46:20.225Z,30.35
2018-05-12T04:46:54.096Z,28.73
2018-05-12T04:47:27.975Z,32.60
2018-05-12T04:48:01.896Z,29.80
2018-05-12T04:48:35.789Z,30.65
2018-05-12T04:49:09.670Z,35.55
2018-05-12T04:49:43.645Z,33.53
2018-05-12T04:50:17.589Z,30.92
2018-05-12T04:50:51.483Z,33.83
2018-05-12T04:51:25.363Z,29.20
2018-05-12T04:51:59.244Z,30.10
2018-05-12T04:52:33.126Z,36.65
2018-05-12T04:53:07.081Z,29.90
2018-05-12T04:53:40.956Z,32.17
2018-05-12T04:54:14.957Z,32.08
2018-05-12T04:54:48.793Z,32.88
2018-05-12T04:55:22.677Z,32.85
2018-05-12T04:55:56.597Z,34.47
2018-05-12T04:56:30.469Z,32.95
2018-05-12T04:57:04.414Z,31.77
2018-05-12T04:57:38.294Z,33.85
2018-05-12T04:58:12.195Z,39.33
2018-05-12T04:58:46.093Z,32.92
2018-05-12T04:59:19.993Z,30.52
2018-05-12T04:59:53.888Z,33.45
2018-05-12T05:00:27.769Z,34.40
2018-05-12T05:01:01.663Z,31.60
2018-05-12T05:01:35.601Z,35.53
2018-05-12T05:02:09.476Z,36.38
2018-05-12T05:02:43.350Z,31.95
2018-05-12T05:03:17.228Z,33.42
2018-05-12T05:03:51.111Z,35.38
2018-05-12T05:04:25.023Z,36.40
2018-05-12T05:04:58.913Z,37.15
2018-05-12T05:05:32.846Z,32.75
2018-05-12T05:06:06.785Z,35.72
2018-05-12T05:06:40.690Z,32.92
2018-05-12T05:07:15.276Z,33.22
2018-05-12T05:07:49.171Z,34.95
2018-05-12T05:08:23.052Z,31.62
2018-05-12T05:08:56.924Z,36.05
2018-05-12T05:09:30.805Z,35.97
2018-05-12T05:10:04.786Z,39.35
2018-05-12T05:10:38.717Z,32.97
2018-05-12T05:11:12.695Z,31.60
2018-05-12T05:11:46.627Z,33.72
2018-05-12T05:12:20.536Z,34.88
2018-05-12T05:12:55.715Z,35.30
2018-05-12T05:13:29.606Z,31.08
2018-05-12T05:14:03.497Z,31.58
2018-05-12T05:14:37.377Z,37.05
2018-05-12T05:15:11.291Z,35.08
2018-05-12T05:15:45.181Z,37.33
2018-05-12T05:16:19.088Z,35.38
2018-05-12T05:16:52.968Z,34.17
2018-05-12T05:17:26.851Z,36.75
2018-05-12T05:18:00.726Z,36.10
2018-05-12T05:18:34.620Z,36.13
2018-05-12T05:19:08.540Z,33.70
2018-05-12T05:19:42.445Z,31.87
2018-05-12T05:20:16.339Z,32.63
2018-05-12T05:20:50.232Z,33.47
2018-05-12T05:21:24.168Z,37.65
2018-05-12T05:21:58.061Z,32.72
2018-05-12T05:22:31.957Z,37.97
2018-05-12T05:23:05.865Z,35.25
2018-05-12T05:23:39.773Z,34.40
2018-05-12T05:24:13.641Z,33.85
2018-05-12T05:24:47.519Z,36.15
2018-05-12T05:25:21.496Z,34.05
2018-05-12T05:25:55.395Z,39.08
2018-05-12T05:26:30.283Z,37.22
2018-05-12T05:27:04.200Z,37.55
2018-05-12T05:27:38.130Z,36.28
2018-05-12T05:28:12.016Z,36.25
2018-05-12T05:28:45.929Z,34.35
2018-05-12T05:29:19.806Z,37.30
2018-05-12T05:29:53.686Z,40.08
2018-05-12T05:30:27.593Z,31.67
2018-05-12T05:31:01.535Z,34.22
2018-05-12T05:31:35.483Z,35.05
2018-05-12T05:32:09.362Z,33.22
2018-05-12T05:32:43.258Z,32.40
2018-05-12T05:33:17.181Z,34.17
2018-05-12T05:33:51.074Z,35.47
2018-05-12T05:34:25.722Z,37.55
2018-05-12T05:34:59.643Z,36.67
2018-05-12T05:35:33.552Z,33.47
2018-05-12T05:36:07.435Z,39.50
2018-05-12T05:36:42.320Z,33.15
2018-05-12T05:37:16.273Z,37.15
2018-05-12T05:37:50.184Z,35.22
2018-05-12T05:38:24.080Z,34.67
2018-05-12T05:38:57.981Z,33.20
2018-05-12T05:39:31.885Z,35.10
2018-05-12T05:40:05.826Z,36.00
2018-05-12T05:40:39.737Z,38.72
2018-05-12T05:41:14.546Z,36.65
2018-05-12T05:41:48.497Z,31.52
2018-05-12T05:42:23.192Z,40.33
2018-05-12T05:42:57.083Z,41.10
2018-05-12T05:43:30.978Z,39.85
2018-05-12T05:44:04.948Z,35.20
2018-05-12T05:44:38.900Z,37.22
2018-05-12T05:45:12.871Z,35.80
2018-05-12T05:45:46.822Z,37.53
2018-05-12T05:46:20.723Z,40.65
2018-05-12T05:46:54.659Z,38.08
2018-05-12T05:47:28.579Z,35.53
2018-05-12T05:48:02.513Z,38.38
2018-05-12T05:48:36.440Z,34.67
2018-05-12T05:49:10.350Z,38.85
2018-05-12T05:49:44.255Z,34.55
2018-05-12T05:50:18.162Z,36.05
2018-05-12T05:50:52.039Z,37.47
2018-05-12T05:51:25.971Z,39.92
2018-05-12T05:51:59.909Z,37.10
2018-05-12T05:52:33.808Z,36.95
2018-05-12T05:53:07.696Z,39.75
2018-05-12T05:53:41.632Z,39.50
2018-05-12T05:54:15.530Z,36.30
2018-05-12T05:54:49.406Z,33.45
2018-05-12T05:55:23.302Z,41.55
2018-05-12T05:55:57.197Z,43.28
2018-05-12T05:56:31.116Z,38.75
2018-05-12T05:57:05.063Z,40.05
2018-05-12T05:57:38.958Z,37.50
2018-05-12T05:58:12.857Z,37.40
2018-05-12T05:58:46.781Z,35.53
2018-05-12T05:59:20.701Z,38.85
2018-05-12T05:59:55.621Z,36.33
2018-05-12T06:00:29.720Z,38.72
2018-05-12T06:01:04.553Z,36.92
2018-05-12T06:01:38.479Z,37.70
2018-05-12T06:02:13.341Z,37.58
2018-05-12T06:02:47.305Z,39.55
2018-05-12T06:03:21.298Z,36.58
2018-05-12T06:03:55.269Z,39.53
2018-05-12T06:04:29.238Z,37.75
2018-05-12T06:05:03.191Z,37.10
2018-05-12T06:05:37.121Z,40.05
2018-05-12T06:06:11.084Z,36.92
2018-05-12T06:06:45.175Z,35.78
2018-05-12T06:07:19.249Z,35.88
2018-05-12T06:07:53.179Z,38.20
2018-05-12T06:08:27.188Z,35.42
2018-05-12T06:09:01.108Z,40.67
2018-05-12T06:09:35.026Z,35.80
2018-05-12T06:10:08.943Z,36.88
2018-05-12T06:10:43.465Z,36.80
2018-05-12T06:11:17.484Z,36.83
2018-05-12T06:11:51.411Z,42.90
2018-05-12T06:12:25.402Z,36.33
2018-05-12T06:12:59.383Z,41.30
2018-05-12T06:13:33.297Z,37.55
2018-05-12T06:14:07.246Z,35.13
2018-05-12T06:14:42.116Z,33.83
2018-05-12T06:15:16.040Z,39.58
2018-05-12T06:15:50.016Z,40.22
2018-05-12T06:16:23.890Z,38.78
2018-05-12T06:16:57.783Z,35.80
2018-05-12T06:17:31.693Z,36.80
2018-05-12T06:18:05.684Z,34.83
2018-05-12T06:18:39.503Z,39.85
2018-05-12T06:19:13.410Z,45.63
2018-05-12T06:19:47.313Z,37.85
2018-05-12T06:20:21.306Z,37.20
2018-05-12T06:20:55.221Z,40.35
2018-05-12T06:21:29.174Z,41.15
2018-05-12T06:22:03.083Z,38.55
2018-05-12T06:22:37.004Z,37.88
2018-05-12T06:23:10.881Z,38.60
2018-05-12T06:23:44.768Z,36.08
2018-05-12T06:24:19.423Z,37.05
2018-05-12T06:24:53.398Z,37.42
2018-05-12T06:25:27.334Z,36.45
2018-05-12T06:26:01.252Z,37.80
2018-05-12T06:26:35.220Z,39.05
2018-05-12T06:27:09.119Z,40.00
2018-05-12T06:27:43.047Z,40.15
2018-05-12T06:28:17.009Z,40.10
2018-05-12T06:28:50.985Z,42.88
2018-05-12T06:29:24.888Z,36.58
2018-05-12T06:29:58.831Z,36.55
2018-05-12T06:30:32.731Z,39.25
2018-05-12T06:31:06.680Z,46.40
2018-05-12T06:31:40.598Z,41.40
2018-05-12T06:32:14.535Z,36.92
2018-05-12T06:32:49.952Z,42.03
2018-05-12T06:33:23.918Z,44.40
2018-05-12T06:33:57.822Z,40.75
2018-05-12T06:34:31.797Z,40.67
2018-05-12T06:35:05.735Z,42.33
2018-05-12T06:35:39.650Z,45.33
2018-05-12T06:36:13.561Z,40.35
2018-05-12T06:36:47.466Z,42.45
2018-05-12T06:37:22.165Z,44.67
2018-05-12T06:37:56.267Z,44.35
2018-05-12T06:38:30.201Z,43.75
2018-05-12T06:39:04.102Z,44.83
2018-05-12T06:39:38.063Z,45.42
2018-05-12T06:40:11.998Z,47.35
2018-05-12T06:40:45.973Z,41.63
2018-05-12T06:41:20.848Z,46.08
2018-05-12T06:41:54.761Z,44.13
2018-05-12T06:42:28.656Z,38.08
2018-05-12T06:43:02.583Z,40.55
2018-05-12T06:43:36.479Z,38.95
2018-05-12T06:44:10.385Z,43.28
2018-05-12T06:44:44.338Z,40.47
2018-05-12T06:45:18.238Z,45.20
2018-05-12T06:45:52.174Z,38.10
2018-05-12T06:46:26.103Z,39.55
2018-05-12T06:47:00.010Z,41.30
2018-05-12T06:47:33.943Z,45.88
2018-05-12T06:48:07.910Z,41.35
2018-05-12T06:48:41.788Z,39.40
2018-05-12T06:49:15.717Z,44.65
2018-05-12T06:49:49.657Z,42.50
2018-05-12T06:50:23.600Z,43.55
2018-05-12T06:50:57.620Z,39.35
2018-05-12T06:51:31.545Z,45.40
2018-05-12T06:52:05.557Z,40.30
2018-05-12T06:52:39.443Z,43.55
2018-05-12T06:53:13.438Z,44.10
2018-05-12T06:53:47.992Z,40.28
2018-05-12T06:54:21.961Z,45.55
2018-05-12T06:54:55.938Z,42.62
2018-05-12T06:55:29.807Z,43.22
2018-05-12T06:56:03.734Z,42.55
2018-05-12T06:56:37.628Z,43.40
2018-05-12T06:57:11.548Z,39.50
2018-05-12T06:57:45.459Z,44.97
2018-05-12T06:58:20.031Z,42.25
2018-05-12T06:58:53.994Z,40.22
2018-05-12T06:59:27.914Z,46.33
2018-05-12T07:00:01.871Z,45.53
2018-05-12T07:00:35.778Z,43.22
2018-05-12T07:01:09.948Z,46.10
2018-05-12T07:01:43.871Z,43.38
2018-05-12T07:02:17.769Z,43.50
2018-05-12T07:02:51.703Z,44.45
2018-05-12T07:03:25.596Z,43.70
2018-05-12T07:03:59.542Z,45.53
2018-05-12T07:04:34.079Z,40.88
2018-05-12T07:05:08.966Z,40.00
2018-05-12T07:05:42.876Z,41.05
2018-05-12T07:06:16.809Z,44.90
2018-05-12T07:06:50.763Z,46.85
2018-05-12T07:07:24.667Z,43.15
2018-05-12T07:07:58.583Z,44.08
2018-05-12T07:08:32.518Z,39.70
2018-05-12T07:09:06.462Z,42.25
2018-05-12T07:09:40.348Z,43.00
2018-05-12T07:10:14.945Z,37.28
2018-05-12T07:10:48.859Z,41.70
2018-05-12T07:11:22.732Z,43.03
2018-05-12T07:11:57.473Z,45.08
2018-05-12T07:12:32.229Z,45.85
2018-05-12T07:13:06.207Z,41.63
2018-05-12T07:13:40.101Z,44.88
2018-05-12T07:14:14.101Z,44.63
2018-05-12T07:14:48.060Z,43.15
2018-05-12T07:15:22.047Z,45.12
2018-05-12T07:15:57.950Z,47.30
2018-05-12T07:16:32.640Z,47.50
2018-05-12T07:17:06.577Z,41.37
2018-05-12T07:17:40.534Z,43.40
2018-05-12T07:18:16.421Z,43.47
2018-05-12T07:18:50.918Z,43.45
2018-05-12T07:19:24.989Z,41.95
2018-05-12T07:19:59.542Z,45.12
2018-05-12T07:20:33.491Z,40.47
2018-05-12T07:21:07.406Z,40.92
2018-05-12T07:34:37.403Z,41.72
2018-05-12T07:35:11.363Z,46.85
2018-05-12T07:35:45.285Z,42.22
2018-05-12T07:36:19.198Z,48.85
2018-05-12T07:36:59.439Z,47.15
2018-05-12T07:37:33.809Z,43.00
2018-05-12T07:38:07.765Z,42.62
2018-05-12T07:38:41.784Z,46.63
2018-05-12T07:39:15.723Z,42.58
2018-05-12T07:39:50.321Z,48.42
2018-05-12T07:40:24.235Z,41.97
2018-05-12T07:40:58.133Z,51.53
2018-05-12T07:41:33.339Z,47.03
2018-05-12T07:42:08.765Z,46.05
2018-05-12T07:42:42.672Z,42.35
2018-05-12T07:43:16.633Z,45.85
2018-05-12T07:43:50.568Z,46.17
2018-05-12T07:44:24.758Z,48.40